createdAt,value
2023-09-17T00:00:00.594Z,0.0
2023-09-17T00:05:00.667Z,0.0
2023-09-17T00:10:00.777Z,0.0
2023-09-17T00:15:01.309Z,0.0
2023-09-17T00:20:00.714Z,0.0
2023-09-17T00:25:00.655Z,0.0
2023-09-17T00:30:00.636Z,0.0
2023-09-17T00:35:00.715Z,0.0
2023-09-17T00:40:00.650Z,0.0
2023-09-17T00:45:00.624Z,0.0
2023-09-17T00:50:01.748Z,0.0
2023-09-17T00:55:01.108Z,0.0
2023-09-17T01:00:01.002Z,0.0
2023-09-17T01:05:00.677Z,0.0
2023-09-17T01:10:01.012Z,0.0
2023-09-17T01:15:02.593Z,0.0
2023-09-17T01:20:00.955Z,0.0
2023-09-17T01:25:03.894Z,0.0
2023-09-17T01:30:00.677Z,0.0
2023-09-17T01:35:00.644Z,0.0
2023-09-17T01:40:06.869Z,0.0
2023-09-17T01:45:02.011Z,0.0
2023-09-17T01:50:02.190Z,0.0
2023-09-17T01:55:01.385Z,0.0
2023-09-17T02:00:00.723Z,0.0
2023-09-17T02:05:00.590Z,0.0
2023-09-17T02:10:00.690Z,0.0
2023-09-17T02:15:00.619Z,0.0
2023-09-17T02:20:00.684Z,0.0
2023-09-17T02:25:00.922Z,0.0
2023-09-17T02:30:01.091Z,0.0
2023-09-17T02:35:00.561Z,0.0
2023-09-17T02:40:00.692Z,0.0
2023-09-17T02:45:00.612Z,0.0
2023-09-17T02:50:00.953Z,0.0
2023-09-17T02:55:00.622Z,0.0
2023-09-17T03:00:00.685Z,0.0
2023-09-17T03:05:00.602Z,5201.0
2023-09-17T03:10:00.677Z,5201.0
2023-09-17T03:15:00.586Z,5201.0
2023-09-17T03:20:00.873Z,7106.0
2023-09-17T03:25:04.622Z,5201.0
2023-09-17T03:30:01.201Z,5201.0
2023-09-17T03:35:00.951Z,6471.0
2023-09-17T03:40:04.639Z,5201.0
2023-09-17T03:45:00.593Z,5201.0
2023-09-17T03:50:00.640Z,6153.5
2023-09-17T03:55:01.355Z,5963.0
2023-09-17T04:00:00.974Z,5836.0
2023-09-17T04:05:00.667Z,5836.0
2023-09-17T04:10:00.714Z,5836.0
2023-09-17T04:15:01.032Z,6471.0
2023-09-17T04:20:01.107Z,5745.3
2023-09-17T04:25:00.598Z,6289.6
2023-09-17T04:30:00.803Z,5677.2
2023-09-17T04:35:04.960Z,6153.5
2023-09-17T04:40:01.363Z,6629.8
2023-09-17T04:45:00.841Z,6153.5
2023-09-17T04:50:00.898Z,6047.7
2023-09-17T04:55:00.697Z,6471.0
2023-09-17T05:00:01.035Z,6047.7
2023-09-17T05:05:00.671Z,6471.0
2023-09-17T05:10:00.672Z,6471.0
2023-09-17T05:15:00.730Z,6471.0
2023-09-17T05:20:00.617Z,5963.0
2023-09-17T05:25:02.387Z,6344.0
2023-09-17T05:30:01.283Z,6344.0
2023-09-17T05:35:00.653Z,6344.0
2023-09-17T05:40:00.699Z,6344.0
2023-09-17T05:45:00.804Z,6344.0
2023-09-17T05:50:01.067Z,6344.0
2023-09-17T05:55:00.722Z,6344.0
2023-09-17T06:00:02.378Z,6240.1
2023-09-17T06:05:01.325Z,6240.1
2023-09-17T06:10:00.670Z,6240.1
2023-09-17T06:15:00.654Z,6725.0
2023-09-17T06:20:00.706Z,6586.5
2023-09-17T06:25:00.744Z,6240.1
2023-09-17T06:30:00.931Z,6586.5
2023-09-17T06:35:00.769Z,6586.5
2023-09-17T06:40:00.859Z,6586.5
2023-09-17T06:45:00.661Z,6471.0
2023-09-17T06:50:00.854Z,6080.2
2023-09-17T06:55:00.695Z,6471.0
2023-09-17T07:00:00.874Z,6080.2
2023-09-17T07:05:01.387Z,6373.3
2023-09-17T07:10:00.579Z,6373.3
2023-09-17T07:15:00.714Z,6017.4
2023-09-17T07:20:00.614Z,6289.6
2023-09-17T07:25:00.969Z,5963.0
2023-09-17T07:30:00.790Z,5963.0
2023-09-17T07:35:00.688Z,5873.4
2023-09-17T07:40:03.871Z,5602.1
2023-09-17T07:45:00.604Z,5547.4
2023-09-17T07:50:00.653Z,5088.9
2023-09-17T07:55:00.775Z,4907.9
2023-09-17T08:00:00.623Z,5005.6
2023-09-17T08:05:00.714Z,5005.6
2023-09-17T08:10:00.597Z,4907.9
2023-09-17T08:15:01.132Z,4915.2
2023-09-17T08:20:00.685Z,4935.2
2023-09-17T08:25:00.928Z,4862.3
2023-09-17T08:30:00.613Z,4890.0
2023-09-17T08:35:00.696Z,4854.6
2023-09-17T08:40:00.589Z,4813.5
2023-09-17T08:45:02.566Z,4763.8
2023-09-17T08:50:00.650Z,4724.8
2023-09-17T08:55:02.774Z,4756.5
2023-09-17T09:00:03.728Z,4711.1
2023-09-17T09:05:02.724Z,4663.7
2023-09-17T09:10:01.586Z,4718.7
2023-09-17T09:15:01.637Z,4707.9
2023-09-17T09:20:00.701Z,4724.8
2023-09-17T09:25:02.084Z,4674.1
2023-09-17T09:30:04.501Z,4685.1
2023-09-17T09:35:02.634Z,4704.0
2023-09-17T09:40:01.373Z,4667.6
2023-09-17T09:45:02.710Z,4681.5
2023-09-17T09:50:00.641Z,4670.9
2023-09-17T09:55:00.675Z,4661.2
2023-09-17T10:00:00.722Z,4711.6
2023-09-17T10:05:01.282Z,4656.7
2023-09-17T10:10:00.680Z,4623.7
2023-09-17T10:15:00.701Z,4608.3
2023-09-17T10:20:03.073Z,4644.2
2023-09-17T10:25:03.145Z,4596.7
2023-09-17T10:30:01.595Z,4583.2
2023-09-17T10:40:02.608Z,4594.3
2023-09-17T10:45:02.362Z,4589.5
2023-09-17T10:50:01.734Z,4581.3
2023-09-17T10:55:00.709Z,4551.1
2023-09-17T11:00:02.170Z,4569.8
2023-09-17T11:05:04.862Z,4590.4
2023-09-17T11:10:00.799Z,4600.8
2023-09-17T11:15:00.683Z,4550.5
2023-09-17T11:20:01.041Z,4508.3
2023-09-17T11:25:01.974Z,4530.1
2023-09-17T11:30:00.946Z,4510.4
2023-09-17T11:35:00.752Z,4506.1
2023-09-17T11:40:00.756Z,4528.6
2023-09-17T11:45:00.732Z,4531.7
2023-09-17T11:50:01.233Z,4501.7
2023-09-17T11:55:00.860Z,4503.7
2023-09-17T12:00:00.974Z,4494.5
2023-09-17T12:05:00.792Z,4452.6
2023-09-17T12:10:04.541Z,4503.4
2023-09-17T12:15:00.997Z,4470.9
2023-09-17T12:20:01.123Z,4448.7
2023-09-17T12:25:01.829Z,4458.2
2023-09-17T12:30:01.504Z,4421.2
2023-09-17T12:35:00.629Z,4387.6
2023-09-17T12:40:00.751Z,4398.9
2023-09-17T12:45:00.639Z,4378.4
2023-09-17T12:50:01.422Z,4335.1
2023-09-17T12:55:01.261Z,4323.5
2023-09-17T13:00:02.410Z,4310.4
2023-09-17T13:05:00.640Z,4298.1
2023-09-17T13:10:00.897Z,4282.9
2023-09-17T13:15:01.052Z,4378.0
2023-09-17T13:20:00.784Z,4191.9
2023-09-17T13:25:00.677Z,4261.2
2023-09-17T13:30:00.857Z,4168.2
2023-09-17T13:35:00.877Z,4100.3
2023-09-17T13:40:05.633Z,4075.3
2023-09-17T13:45:00.595Z,4020.1
2023-09-17T13:50:00.936Z,4028.7
2023-09-17T13:55:00.635Z,3938.8
2023-09-17T14:00:00.691Z,3931.0
2023-09-17T14:05:00.730Z,3801.4
2023-09-17T14:10:00.939Z,3788.9
2023-09-17T14:15:00.639Z,3750.9
2023-09-17T14:20:00.741Z,3671.0
2023-09-17T14:25:00.646Z,3600.2
2023-09-17T14:30:00.751Z,3511.3
2023-09-17T14:35:00.668Z,3437.1
2023-09-17T14:40:00.724Z,3372.2
2023-09-17T14:45:00.703Z,3296.0
2023-09-17T14:50:00.877Z,3205.3
2023-09-17T14:55:00.723Z,3118.2
2023-09-17T15:00:00.653Z,3040.1
2023-09-17T15:05:01.043Z,2928.4
2023-09-17T15:10:00.679Z,2863.0
2023-09-17T15:15:00.697Z,2766.8
2023-09-17T15:20:00.723Z,2661.0
2023-09-17T15:25:00.724Z,2819.8
2023-09-17T15:30:00.653Z,2915.0
2023-09-17T15:35:01.013Z,4248.5
2023-09-17T15:40:00.699Z,3931.0
2023-09-17T15:45:00.950Z,5201.0
2023-09-17T15:50:00.701Z,1391.0
2023-09-17T15:55:00.694Z,5201.0
2023-09-17T16:00:00.752Z,0.0
2023-09-17T16:05:00.653Z,0.0
2023-09-17T16:10:01.087Z,0.0
2023-09-17T16:15:00.753Z,0.0
2023-09-17T16:20:01.160Z,0.0
2023-09-17T16:25:01.027Z,0.0
2023-09-17T16:30:00.710Z,0.0
2023-09-17T16:35:00.659Z,0.0
2023-09-17T16:40:01.383Z,0.0
2023-09-17T16:45:03.225Z,0.0
2023-09-17T16:50:00.851Z,0.0
2023-09-17T16:55:00.708Z,0.0
2023-09-17T17:00:00.713Z,0.0
2023-09-17T17:10:00.758Z,0.0
2023-09-17T17:20:00.810Z,0.0
2023-09-17T17:25:00.597Z,0.0
2023-09-17T17:30:00.730Z,0.0
2023-09-17T17:35:00.712Z,0.0
2023-09-17T17:40:00.706Z,0.0
2023-09-17T17:45:00.912Z,0.0
2023-09-17T17:50:01.131Z,0.0
2023-09-17T17:55:00.876Z,0.0
2023-09-17T18:00:00.730Z,0.0
2023-09-17T18:05:00.630Z,0.0
2023-09-17T18:10:02.720Z,0.0
2023-09-17T18:15:00.653Z,0.0
2023-09-17T18:20:01.542Z,0.0
2023-09-17T18:25:00.610Z,0.0
2023-09-17T18:30:00.788Z,0.0
2023-09-17T18:35:00.738Z,0.0
2023-09-17T18:40:00.797Z,0.0
2023-09-17T18:45:01.108Z,0.0
2023-09-17T18:50:00.969Z,0.0
2023-09-17T18:55:00.622Z,0.0
2023-09-17T19:00:00.703Z,0.0
2023-09-17T19:05:00.613Z,0.0
2023-09-17T19:10:01.042Z,0.0
2023-09-17T19:15:00.677Z,0.0
2023-09-17T19:20:00.731Z,0.0
2023-09-17T19:25:00.940Z,0.0
2023-09-17T19:30:01.012Z,0.0
2023-09-17T19:35:00.629Z,0.0
2023-09-17T19:40:00.667Z,0.0
2023-09-17T19:45:00.621Z,0.0
2023-09-17T19:50:00.772Z,0.0
2023-09-17T19:55:00.661Z,0.0
2023-09-17T20:00:00.733Z,0.0
2023-09-17T20:05:00.655Z,0.0
2023-09-17T20:10:01.754Z,0.0
2023-09-17T20:15:00.781Z,0.0
2023-09-17T20:20:01.204Z,0.0
2023-09-17T20:25:00.640Z,0.0
2023-09-17T20:30:01.331Z,0.0
2023-09-17T20:35:00.605Z,0.0
2023-09-17T20:40:00.725Z,0.0
2023-09-17T20:45:00.605Z,0.0
2023-09-17T20:50:00.776Z,0.0
2023-09-17T20:55:00.594Z,0.0
2023-09-17T21:00:01.329Z,0.0
2023-09-17T21:05:00.666Z,0.0
2023-09-17T21:10:00.963Z,0.0
2023-09-17T21:15:00.675Z,0.0
2023-09-17T21:20:00.725Z,0.0
2023-09-17T21:25:01.018Z,0.0
2023-09-17T21:30:00.675Z,0.0
2023-09-17T21:35:00.732Z,0.0
2023-09-17T21:40:00.927Z,0.0
2023-09-17T21:45:00.597Z,0.0
2023-09-17T21:50:01.365Z,0.0
2023-09-17T21:55:00.647Z,0.0
2023-09-17T22:00:00.764Z,0.0
2023-09-17T22:05:00.655Z,0.0
2023-09-17T22:10:00.700Z,0.0
2023-09-17T22:15:00.616Z,0.0
2023-09-17T22:20:01.228Z,0.0
2023-09-17T22:25:00.603Z,0.0
2023-09-17T22:30:00.975Z,0.0
2023-09-17T22:35:00.691Z,0.0
2023-09-17T22:40:01.481Z,0.0
2023-09-17T22:45:00.704Z,0.0
2023-09-17T22:50:00.950Z,0.0
2023-09-17T22:55:00.821Z,0.0
2023-09-17T23:00:00.689Z,0.0
2023-09-17T23:05:00.685Z,0.0
2023-09-17T23:10:00.906Z,0.0
2023-09-17T23:15:00.944Z,0.0
2023-09-17T23:20:00.717Z,0.0
2023-09-17T23:25:00.600Z,0.0
2023-09-17T23:30:00.706Z,0.0
2023-09-17T23:35:00.628Z,0.0
2023-09-17T23:40:00.739Z,0.0
2023-09-17T23:45:00.618Z,0.0
2023-09-17T23:50:00.739Z,0.0
2023-09-17T23:55:00.567Z,0.0
